sensor_id;sensor_type;location;lat;lon;timestamp;temperature;humidity
16974;DHT22;8603;46.944;7.412;2023-07-28T00:02:05;17.30;99.90
16974;DHT22;8603;46.944;7.412;2023-07-28T00:04:33;17.30;99.90
16974;DHT22;8603;46.944;7.412;2023-07-28T00:06:59;17.30;99.90
16974;DHT22;8603;46.944;7.412;2023-07-28T00:09:24;17.40;99.90
16974;DHT22;8603;46.944;7.412;2023-07-28T00:11:50;17.40;99.90
16974;DHT22;8603;46.944;7.412;2023-07-28T00:14:15;17.30;99.90
16974;DHT22;8603;46.944;7.412;2023-07-28T00:16:41;17.20;99.90
16974;DHT22;8603;46.944;7.412;2023-07-28T00:19:06;17.20;99.90
16974;DHT22;8603;46.944;7.412;2023-07-28T00:21:32;17.20;99.90
16974;DHT22;8603;46.944;7.412;2023-07-28T00:23:58;17.20;99.90
16974;DHT22;8603;46.944;7.412;2023-07-28T00:26:23;17.20;99.90
16974;DHT22;8603;46.944;7.412;2023-07-28T00:28:49;17.20;99.90
16974;DHT22;8603;46.944;7.412;2023-07-28T00:31:14;17.10;99.90
16974;DHT22;8603;46.944;7.412;2023-07-28T00:33:40;17.00;99.90
16974;DHT22;8603;46.944;7.412;2023-07-28T00:36:06;17.00;99.90
16974;DHT22;8603;46.944;7.412;2023-07-28T00:38:31;16.90;99.90
16974;DHT22;8603;46.944;7.412;2023-07-28T00:40:57;16.80;99.90
16974;DHT22;8603;46.944;7.412;2023-07-28T00:43:23;16.70;99.90
16974;DHT22;8603;46.944;7.412;2023-07-28T00:45:49;16.60;99.90
16974;DHT22;8603;46.944;7.412;2023-07-28T00:48:15;16.60;99.90
16974;DHT22;8603;46.944;7.412;2023-07-28T00:50:44;16.50;99.90
16974;DHT22;8603;46.944;7.412;2023-07-28T00:53:10;16.50;99.90
16974;DHT22;8603;46.944;7.412;2023-07-28T00:55:36;16.40;99.90
16974;DHT22;8603;46.944;7.412;2023-07-28T00:58:02;16.40;99.90
16974;DHT22;8603;46.944;7.412;2023-07-28T01:00:27;16.50;99.90
16974;DHT22;8603;46.944;7.412;2023-07-28T01:02:53;16.50;99.90
16974;DHT22;8603;46.944;7.412;2023-07-28T01:05:21;16.50;99.90
16974;DHT22;8603;46.944;7.412;2023-07-28T01:08:16;16.60;99.90
16974;DHT22;8603;46.944;7.412;2023-07-28T01:10:43;16.70;99.90
16974;DHT22;8603;46.944;7.412;2023-07-28T01:13:08;16.90;99.90
16974;DHT22;8603;46.944;7.412;2023-07-28T01:15:34;16.90;99.90
16974;DHT22;8603;46.944;7.412;2023-07-28T01:17:59;17.00;99.90
16974;DHT22;8603;46.944;7.412;2023-07-28T01:20:29;17.10;99.90
16974;DHT22;8603;46.944;7.412;2023-07-28T01:28:19;17.10;99.90
16974;DHT22;8603;46.944;7.412;2023-07-28T01:30:45;17.10;99.90
16974;DHT22;8603;46.944;7.412;2023-07-28T01:33:11;17.00;99.90
16974;DHT22;8603;46.944;7.412;2023-07-28T01:35:37;17.00;99.90
16974;DHT22;8603;46.944;7.412;2023-07-28T01:38:05;17.10;99.90
16974;DHT22;8603;46.944;7.412;2023-07-28T01:40:31;16.90;99.90
16974;DHT22;8603;46.944;7.412;2023-07-28T01:42:57;16.80;99.90
16974;DHT22;8603;46.944;7.412;2023-07-28T01:45:22;16.70;99.90
16974;DHT22;8603;46.944;7.412;2023-07-28T01:47:48;16.60;99.90
16974;DHT22;8603;46.944;7.412;2023-07-28T01:50:13;16.50;99.90
16974;DHT22;8603;46.944;7.412;2023-07-28T01:52:39;16.40;99.90
16974;DHT22;8603;46.944;7.412;2023-07-28T01:55:05;16.20;99.90
16974;DHT22;8603;46.944;7.412;2023-07-28T01:57:33;16.10;99.90
16974;DHT22;8603;46.944;7.412;2023-07-28T01:59:59;16.10;99.90
16974;DHT22;8603;46.944;7.412;2023-07-28T02:02:24;16.00;99.90
16974;DHT22;8603;46.944;7.412;2023-07-28T02:04:50;16.00;99.90
16974;DHT22;8603;46.944;7.412;2023-07-28T02:07:16;16.00;99.90
16974;DHT22;8603;46.944;7.412;2023-07-28T02:09:42;15.90;99.90
16974;DHT22;8603;46.944;7.412;2023-07-28T02:12:07;16.00;99.90
16974;DHT22;8603;46.944;7.412;2023-07-28T02:14:33;15.90;99.90
16974;DHT22;8603;46.944;7.412;2023-07-28T02:16:58;15.90;99.90
16974;DHT22;8603;46.944;7.412;2023-07-28T02:19:25;15.90;99.90
16974;DHT22;8603;46.944;7.412;2023-07-28T02:21:50;15.70;99.90
16974;DHT22;8603;46.944;7.412;2023-07-28T02:24:16;15.80;99.90
16974;DHT22;8603;46.944;7.412;2023-07-28T02:26:42;15.60;99.90
16974;DHT22;8603;46.944;7.412;2023-07-28T02:29:07;15.60;99.90
16974;DHT22;8603;46.944;7.412;2023-07-28T02:31:33;15.50;99.90
16974;DHT22;8603;46.944;7.412;2023-07-28T02:33:58;15.50;99.90
16974;DHT22;8603;46.944;7.412;2023-07-28T02:36:24;15.40;99.90
16974;DHT22;8603;46.944;7.412;2023-07-28T02:38:49;15.40;99.90
16974;DHT22;8603;46.944;7.412;2023-07-28T02:41:15;15.20;99.90
16974;DHT22;8603;46.944;7.412;2023-07-28T02:43:40;15.30;99.90
16974;DHT22;8603;46.944;7.412;2023-07-28T02:46:06;15.30;99.90
16974;DHT22;8603;46.944;7.412;2023-07-28T02:48:32;15.20;99.90
16974;DHT22;8603;46.944;7.412;2023-07-28T02:50:57;15.10;99.90
16974;DHT22;8603;46.944;7.412;2023-07-28T02:53:23;15.10;99.90
16974;DHT22;8603;46.944;7.412;2023-07-28T02:55:49;15.00;99.90
16974;DHT22;8603;46.944;7.412;2023-07-28T02:58:15;15.00;99.90
16974;DHT22;8603;46.944;7.412;2023-07-28T03:00:41;15.00;99.90
16974;DHT22;8603;46.944;7.412;2023-07-28T03:03:08;14.90;99.90
16974;DHT22;8603;46.944;7.412;2023-07-28T03:05:39;14.90;99.90
16974;DHT22;8603;46.944;7.412;2023-07-28T03:08:05;14.90;99.90
16974;DHT22;8603;46.944;7.412;2023-07-28T03:10:31;14.90;99.90
16974;DHT22;8603;46.944;7.412;2023-07-28T03:12:57;14.90;99.90
16974;DHT22;8603;46.944;7.412;2023-07-28T03:15:22;14.90;99.90
16974;DHT22;8603;46.944;7.412;2023-07-28T03:17:49;14.90;99.90
16974;DHT22;8603;46.944;7.412;2023-07-28T03:20:15;14.90;99.90
16974;DHT22;8603;46.944;7.412;2023-07-28T03:22:40;14.90;99.90
16974;DHT22;8603;46.944;7.412;2023-07-28T03:25:06;15.00;99.90
16974;DHT22;8603;46.944;7.412;2023-07-28T03:27:32;15.00;99.90
16974;DHT22;8603;46.944;7.412;2023-07-28T03:29:57;15.00;99.90
16974;DHT22;8603;46.944;7.412;2023-07-28T03:32:23;15.10;99.90
16974;DHT22;8603;46.944;7.412;2023-07-28T03:34:49;15.10;99.90
16974;DHT22;8603;46.944;7.412;2023-07-28T03:37:14;15.10;99.90
16974;DHT22;8603;46.944;7.412;2023-07-28T03:39:40;15.10;99.90
16974;DHT22;8603;46.944;7.412;2023-07-28T03:42:05;15.20;99.90
16974;DHT22;8603;46.944;7.412;2023-07-28T03:44:31;15.30;99.90
16974;DHT22;8603;46.944;7.412;2023-07-28T03:46:57;15.40;99.90
16974;DHT22;8603;46.944;7.412;2023-07-28T03:49:23;15.40;99.90
16974;DHT22;8603;46.944;7.412;2023-07-28T03:51:48;15.40;99.90
16974;DHT22;8603;46.944;7.412;2023-07-28T03:54:14;15.40;99.90
16974;DHT22;8603;46.944;7.412;2023-07-28T03:56:39;15.40;99.90
16974;DHT22;8603;46.944;7.412;2023-07-28T03:59:05;15.50;99.90
16974;DHT22;8603;46.944;7.412;2023-07-28T04:01:31;15.50;99.90
16974;DHT22;8603;46.944;7.412;2023-07-28T04:03:56;15.50;99.90
16974;DHT22;8603;46.944;7.412;2023-07-28T04:06:43;15.60;99.90
16974;DHT22;8603;46.944;7.412;2023-07-28T04:09:08;15.60;99.90
16974;DHT22;8603;46.944;7.412;2023-07-28T04:11:34;15.70;99.90
16974;DHT22;8603;46.944;7.412;2023-07-28T04:14:00;15.70;99.90
16974;DHT22;8603;46.944;7.412;2023-07-28T04:16:25;15.70;99.90
16974;DHT22;8603;46.944;7.412;2023-07-28T04:18:51;15.80;99.90
16974;DHT22;8603;46.944;7.412;2023-07-28T04:21:16;15.80;99.90
16974;DHT22;8603;46.944;7.412;2023-07-28T04:23:42;15.90;99.90
16974;DHT22;8603;46.944;7.412;2023-07-28T04:26:08;15.90;99.90
16974;DHT22;8603;46.944;7.412;2023-07-28T04:28:34;16.00;99.90
16974;DHT22;8603;46.944;7.412;2023-07-28T04:30:59;16.00;99.90
16974;DHT22;8603;46.944;7.412;2023-07-28T04:33:25;16.00;99.90
16974;DHT22;8603;46.944;7.412;2023-07-28T04:35:51;16.10;99.90
16974;DHT22;8603;46.944;7.412;2023-07-28T04:38:16;16.20;99.90
16974;DHT22;8603;46.944;7.412;2023-07-28T04:40:44;16.20;99.90
16974;DHT22;8603;46.944;7.412;2023-07-28T04:43:09;16.30;99.90
16974;DHT22;8603;46.944;7.412;2023-07-28T04:45:35;16.50;99.90
16974;DHT22;8603;46.944;7.412;2023-07-28T04:48:00;16.60;99.90
16974;DHT22;8603;46.944;7.412;2023-07-28T04:50:26;16.60;99.90
16974;DHT22;8603;46.944;7.412;2023-07-28T04:52:52;16.60;99.90
16974;DHT22;8603;46.944;7.412;2023-07-28T04:55:17;16.60;99.90
16974;DHT22;8603;46.944;7.412;2023-07-28T04:57:43;16.70;99.90
16974;DHT22;8603;46.944;7.412;2023-07-28T05:00:09;16.80;99.90
16974;DHT22;8603;46.944;7.412;2023-07-28T05:02:34;16.90;99.90
16974;DHT22;8603;46.944;7.412;2023-07-28T05:05:00;17.00;99.90
16974;DHT22;8603;46.944;7.412;2023-07-28T05:07:25;17.00;99.90
16974;DHT22;8603;46.944;7.412;2023-07-28T05:09:51;17.00;99.90
16974;DHT22;8603;46.944;7.412;2023-07-28T05:12:17;17.10;99.90
16974;DHT22;8603;46.944;7.412;2023-07-28T05:14:43;17.30;99.90
16974;DHT22;8603;46.944;7.412;2023-07-28T05:17:08;17.50;99.90
16974;DHT22;8603;46.944;7.412;2023-07-28T05:19:34;17.70;99.90
16974;DHT22;8603;46.944;7.412;2023-07-28T05:22:00;17.90;99.90
16974;DHT22;8603;46.944;7.412;2023-07-28T05:24:25;18.00;99.90
16974;DHT22;8603;46.944;7.412;2023-07-28T05:26:51;18.10;99.90
16974;DHT22;8603;46.944;7.412;2023-07-28T05:29:16;18.10;99.90
16974;DHT22;8603;46.944;7.412;2023-07-28T05:31:42;18.20;99.90
16974;DHT22;8603;46.944;7.412;2023-07-28T05:34:08;18.30;99.90
16974;DHT22;8603;46.944;7.412;2023-07-28T05:36:33;18.30;99.90
16974;DHT22;8603;46.944;7.412;2023-07-28T05:38:59;18.30;99.90
16974;DHT22;8603;46.944;7.412;2023-07-28T05:41:26;18.40;99.90
16974;DHT22;8603;46.944;7.412;2023-07-28T05:43:51;18.50;99.90
16974;DHT22;8603;46.944;7.412;2023-07-28T05:46:17;18.50;99.90
16974;DHT22;8603;46.944;7.412;2023-07-28T05:48:43;18.70;99.90
16974;DHT22;8603;46.944;7.412;2023-07-28T05:51:09;18.90;99.90
16974;DHT22;8603;46.944;7.412;2023-07-28T05:53:34;19.10;99.90
16974;DHT22;8603;46.944;7.412;2023-07-28T05:56:00;19.30;99.90
16974;DHT22;8603;46.944;7.412;2023-07-28T05:58:25;19.60;99.90
16974;DHT22;8603;46.944;7.412;2023-07-28T06:00:51;19.80;99.90
16974;DHT22;8603;46.944;7.412;2023-07-28T06:03:16;19.90;99.90
16974;DHT22;8603;46.944;7.412;2023-07-28T06:05:42;20.40;99.90
16974;DHT22;8603;46.944;7.412;2023-07-28T06:08:08;21.30;99.90
16974;DHT22;8603;46.944;7.412;2023-07-28T06:10:34;23.00;99.90
16974;DHT22;8603;46.944;7.412;2023-07-28T06:13:00;24.30;99.90
16974;DHT22;8603;46.944;7.412;2023-07-28T06:15:28;25.30;99.90
16974;DHT22;8603;46.944;7.412;2023-07-28T06:17:53;26.80;99.90
16974;DHT22;8603;46.944;7.412;2023-07-28T06:20:19;27.90;99.90
16974;DHT22;8603;46.944;7.412;2023-07-28T06:22:44;29.00;99.90
16974;DHT22;8603;46.944;7.412;2023-07-28T06:25:10;30.40;99.90
16974;DHT22;8603;46.944;7.412;2023-07-28T06:27:36;30.80;99.90
16974;DHT22;8603;46.944;7.412;2023-07-28T06:30:02;30.60;99.90
16974;DHT22;8603;46.944;7.412;2023-07-28T06:32:27;30.20;99.90
16974;DHT22;8603;46.944;7.412;2023-07-28T06:34:53;29.70;99.90
16974;DHT22;8603;46.944;7.412;2023-07-28T06:37:19;29.50;99.90
16974;DHT22;8603;46.944;7.412;2023-07-28T06:39:45;29.30;99.90
16974;DHT22;8603;46.944;7.412;2023-07-28T06:42:10;28.80;99.90
16974;DHT22;8603;46.944;7.412;2023-07-28T06:44:37;28.50;99.90
16974;DHT22;8603;46.944;7.412;2023-07-28T06:47:03;28.50;99.90
16974;DHT22;8603;46.944;7.412;2023-07-28T06:49:28;28.20;99.90
16974;DHT22;8603;46.944;7.412;2023-07-28T06:51:54;29.00;99.90
16974;DHT22;8603;46.944;7.412;2023-07-28T06:54:20;30.70;99.90
16974;DHT22;8603;46.944;7.412;2023-07-28T06:56:45;32.80;99.40
16974;DHT22;8603;46.944;7.412;2023-07-28T06:59:11;34.90;97.20
16974;DHT22;8603;46.944;7.412;2023-07-28T07:01:37;36.40;93.50
16974;DHT22;8603;46.944;7.412;2023-07-28T07:04:03;36.50;91.20
16974;DHT22;8603;46.944;7.412;2023-07-28T07:06:30;37.20;90.00
16974;DHT22;8603;46.944;7.412;2023-07-28T07:08:55;38.40;87.20
16974;DHT22;8603;46.944;7.412;2023-07-28T07:11:21;39.40;82.60
16974;DHT22;8603;46.944;7.412;2023-07-28T07:13:46;40.50;79.20
16974;DHT22;8603;46.944;7.412;2023-07-28T07:16:16;41.50;76.40
16974;DHT22;8603;46.944;7.412;2023-07-28T07:18:42;42.40;72.90
16974;DHT22;8603;46.944;7.412;2023-07-28T07:21:08;43.10;70.60
16974;DHT22;8603;46.944;7.412;2023-07-28T07:23:34;43.40;68.30
16974;DHT22;8603;46.944;7.412;2023-07-28T07:25:59;43.70;67.70
16974;DHT22;8603;46.944;7.412;2023-07-28T07:28:25;43.80;65.50
16974;DHT22;8603;46.944;7.412;2023-07-28T07:30:51;43.60;65.10
16974;DHT22;8603;46.944;7.412;2023-07-28T07:33:16;43.90;63.90
16974;DHT22;8603;46.944;7.412;2023-07-28T07:35:42;44.10;63.60
16974;DHT22;8603;46.944;7.412;2023-07-28T07:38:08;44.10;63.80
16974;DHT22;8603;46.944;7.412;2023-07-28T07:40:35;44.60;62.20
16974;DHT22;8603;46.944;7.412;2023-07-28T07:43:01;45.10;60.90
16974;DHT22;8603;46.944;7.412;2023-07-28T07:45:31;45.60;60.80
16974;DHT22;8603;46.944;7.412;2023-07-28T07:48:00;45.80;58.70
16974;DHT22;8603;46.944;7.412;2023-07-28T07:50:26;44.60;59.80
16974;DHT22;8603;46.944;7.412;2023-07-28T07:52:51;43.90;59.70
16974;DHT22;8603;46.944;7.412;2023-07-28T07:55:17;42.20;60.90
16974;DHT22;8603;46.944;7.412;2023-07-28T07:57:42;40.90;62.50
16974;DHT22;8603;46.944;7.412;2023-07-28T08:00:09;41.00;62.60
16974;DHT22;8603;46.944;7.412;2023-07-28T08:02:36;41.60;63.00
16974;DHT22;8603;46.944;7.412;2023-07-28T08:05:02;41.70;61.50
16974;DHT22;8603;46.944;7.412;2023-07-28T08:07:28;41.10;62.50
16974;DHT22;8603;46.944;7.412;2023-07-28T08:09:54;41.20;62.60
16974;DHT22;8603;46.944;7.412;2023-07-28T08:12:19;40.90;63.50
16974;DHT22;8603;46.944;7.412;2023-07-28T08:14:45;41.00;63.00
16974;DHT22;8603;46.944;7.412;2023-07-28T08:17:11;41.60;61.60
16974;DHT22;8603;46.944;7.412;2023-07-28T08:19:37;42.30;61.50
16974;DHT22;8603;46.944;7.412;2023-07-28T08:22:03;42.60;60.20
16974;DHT22;8603;46.944;7.412;2023-07-28T08:24:29;42.30;59.60
16974;DHT22;8603;46.944;7.412;2023-07-28T08:26:55;41.70;60.20
16974;DHT22;8603;46.944;7.412;2023-07-28T08:29:20;41.00;62.00
16974;DHT22;8603;46.944;7.412;2023-07-28T08:31:46;40.70;60.80
16974;DHT22;8603;46.944;7.412;2023-07-28T08:34:12;39.70;62.50
16974;DHT22;8603;46.944;7.412;2023-07-28T08:36:38;39.50;62.40
16974;DHT22;8603;46.944;7.412;2023-07-28T08:39:04;39.50;62.80
16974;DHT22;8603;46.944;7.412;2023-07-28T08:41:30;39.70;62.80
16974;DHT22;8603;46.944;7.412;2023-07-28T08:43:56;40.70;62.60
16974;DHT22;8603;46.944;7.412;2023-07-28T08:46:22;41.80;60.60
16974;DHT22;8603;46.944;7.412;2023-07-28T08:48:48;42.50;59.70
16974;DHT22;8603;46.944;7.412;2023-07-28T08:51:14;42.80;59.70
16974;DHT22;8603;46.944;7.412;2023-07-28T08:53:40;43.90;58.30
16974;DHT22;8603;46.944;7.412;2023-07-28T08:56:06;44.80;58.30
16974;DHT22;8603;46.944;7.412;2023-07-28T08:58:32;44.70;57.00
16974;DHT22;8603;46.944;7.412;2023-07-28T09:00:58;44.40;58.40
16974;DHT22;8603;46.944;7.412;2023-07-28T09:03:27;44.60;57.40
16974;DHT22;8603;46.944;7.412;2023-07-28T09:06:03;44.70;57.20
16974;DHT22;8603;46.944;7.412;2023-07-28T09:08:32;44.90;56.60
16974;DHT22;8603;46.944;7.412;2023-07-28T09:11:02;44.50;56.20
16974;DHT22;8603;46.944;7.412;2023-07-28T09:13:36;42.80;57.90
16974;DHT22;8603;46.944;7.412;2023-07-28T09:16:06;42.00;58.40
16974;DHT22;8603;46.944;7.412;2023-07-28T09:18:41;41.20;59.50
16974;DHT22;8603;46.944;7.412;2023-07-28T09:21:18;39.70;61.20
16974;DHT22;8603;46.944;7.412;2023-07-28T09:23:46;38.60;61.10
16974;DHT22;8603;46.944;7.412;2023-07-28T09:26:12;37.20;63.20
16974;DHT22;8603;46.944;7.412;2023-07-28T09:28:39;36.50;64.90
16974;DHT22;8603;46.944;7.412;2023-07-28T09:31:08;36.20;65.20
16974;DHT22;8603;46.944;7.412;2023-07-28T09:33:41;36.10;66.20
16974;DHT22;8603;46.944;7.412;2023-07-28T09:39:23;36.00;67.10
16974;DHT22;8603;46.944;7.412;2023-07-28T09:41:54;35.30;68.00
16974;DHT22;8603;46.944;7.412;2023-07-28T09:44:23;34.70;69.00
16974;DHT22;8603;46.944;7.412;2023-07-28T09:46:51;34.00;70.00
16974;DHT22;8603;46.944;7.412;2023-07-28T09:49:27;33.60;69.90
16974;DHT22;8603;46.944;7.412;2023-07-28T09:51:54;33.20;70.70
16974;DHT22;8603;46.944;7.412;2023-07-28T09:54:28;32.70;70.50
16974;DHT22;8603;46.944;7.412;2023-07-28T09:56:56;31.90;72.10
16974;DHT22;8603;46.944;7.412;2023-07-28T09:59:38;31.30;72.60
16974;DHT22;8603;46.944;7.412;2023-07-28T10:02:04;31.20;73.00
16974;DHT22;8603;46.944;7.412;2023-07-28T10:04:31;30.90;73.80
16974;DHT22;8603;46.944;7.412;2023-07-28T10:06:57;30.90;74.50
16974;DHT22;8603;46.944;7.412;2023-07-28T10:09:27;30.90;75.30
16974;DHT22;8603;46.944;7.412;2023-07-28T10:11:54;30.90;75.80
16974;DHT22;8603;46.944;7.412;2023-07-28T10:14:30;30.90;75.40
16974;DHT22;8603;46.944;7.412;2023-07-28T10:16:59;30.90;77.10
16974;DHT22;8603;46.944;7.412;2023-07-28T10:19:28;30.80;75.80
16974;DHT22;8603;46.944;7.412;2023-07-28T10:22:06;30.70;78.30
16974;DHT22;8603;46.944;7.412;2023-07-28T10:24:54;30.20;78.20
16974;DHT22;8603;46.944;7.412;2023-07-28T10:27:38;29.90;75.60
16974;DHT22;8603;46.944;7.412;2023-07-28T10:30:14;29.70;76.50
16974;DHT22;8603;46.944;7.412;2023-07-28T10:32:48;29.70;77.30
16974;DHT22;8603;46.944;7.412;2023-07-28T10:35:23;29.60;77.60
16974;DHT22;8603;46.944;7.412;2023-07-28T10:37:50;29.60;78.00
16974;DHT22;8603;46.944;7.412;2023-07-28T10:42:52;29.40;78.90
16974;DHT22;8603;46.944;7.412;2023-07-28T10:45:18;29.30;78.30
16974;DHT22;8603;46.944;7.412;2023-07-28T10:47:45;29.30;78.20
16974;DHT22;8603;46.944;7.412;2023-07-28T10:50:11;29.50;79.10
16974;DHT22;8603;46.944;7.412;2023-07-28T10:52:41;29.70;78.10
16974;DHT22;8603;46.944;7.412;2023-07-28T10:55:14;30.00;78.80
16974;DHT22;8603;46.944;7.412;2023-07-28T10:57:42;30.30;79.40
16974;DHT22;8603;46.944;7.412;2023-07-28T11:00:09;30.70;77.10
16974;DHT22;8603;46.944;7.412;2023-07-28T11:02:44;30.60;75.60
16974;DHT22;8603;46.944;7.412;2023-07-28T11:05:13;30.50;77.10
16974;DHT22;8603;46.944;7.412;2023-07-28T11:07:43;30.50;76.60
16974;DHT22;8603;46.944;7.412;2023-07-28T11:10:10;30.50;76.80
16974;DHT22;8603;46.944;7.412;2023-07-28T11:12:39;30.50;76.00
16974;DHT22;8603;46.944;7.412;2023-07-28T11:15:08;30.70;76.30
16974;DHT22;8603;46.944;7.412;2023-07-28T11:17:40;30.80;76.30
16974;DHT22;8603;46.944;7.412;2023-07-28T11:20:22;30.80;75.90
16974;DHT22;8603;46.944;7.412;2023-07-28T11:22:56;30.70;75.80
16974;DHT22;8603;46.944;7.412;2023-07-28T11:25:23;30.40;76.70
16974;DHT22;8603;46.944;7.412;2023-07-28T11:27:50;30.20;75.10
16974;DHT22;8603;46.944;7.412;2023-07-28T11:30:17;30.20;76.40
16974;DHT22;8603;46.944;7.412;2023-07-28T11:32:45;30.20;76.70
16974;DHT22;8603;46.944;7.412;2023-07-28T11:35:12;30.40;78.00
16974;DHT22;8603;46.944;7.412;2023-07-28T11:37:39;30.50;76.70
16974;DHT22;8603;46.944;7.412;2023-07-28T11:40:07;30.20;78.20
16974;DHT22;8603;46.944;7.412;2023-07-28T11:42:44;30.20;77.40
16974;DHT22;8603;46.944;7.412;2023-07-28T11:45:12;30.20;77.60
16974;DHT22;8603;46.944;7.412;2023-07-28T11:47:39;30.10;77.20
16974;DHT22;8603;46.944;7.412;2023-07-28T11:50:05;30.00;77.20
16974;DHT22;8603;46.944;7.412;2023-07-28T11:54:59;30.10;78.80
16974;DHT22;8603;46.944;7.412;2023-07-28T11:57:26;29.70;77.80
16974;DHT22;8603;46.944;7.412;2023-07-28T11:59:53;29.70;77.70
16974;DHT22;8603;46.944;7.412;2023-07-28T12:02:32;29.70;78.10
16974;DHT22;8603;46.944;7.412;2023-07-28T12:04:59;29.70;77.80
16974;DHT22;8603;46.944;7.412;2023-07-28T12:07:29;29.80;78.00
16974;DHT22;8603;46.944;7.412;2023-07-28T12:10:03;29.80;78.60
16974;DHT22;8603;46.944;7.412;2023-07-28T12:12:38;29.80;79.60
16974;DHT22;8603;46.944;7.412;2023-07-28T12:15:19;29.60;79.50
16974;DHT22;8603;46.944;7.412;2023-07-28T12:18:11;29.40;79.30
16974;DHT22;8603;46.944;7.412;2023-07-28T12:20:49;29.20;80.30
16974;DHT22;8603;46.944;7.412;2023-07-28T12:23:22;29.10;81.00
16974;DHT22;8603;46.944;7.412;2023-07-28T12:25:49;29.00;81.60
16974;DHT22;8603;46.944;7.412;2023-07-28T12:28:16;29.00;81.40
16974;DHT22;8603;46.944;7.412;2023-07-28T12:30:41;29.10;81.60
16974;DHT22;8603;46.944;7.412;2023-07-28T12:33:08;29.20;82.20
16974;DHT22;8603;46.944;7.412;2023-07-28T12:35:34;29.40;82.10
16974;DHT22;8603;46.944;7.412;2023-07-28T12:38:01;29.50;82.30
16974;DHT22;8603;46.944;7.412;2023-07-28T12:40:29;29.60;80.20
16974;DHT22;8603;46.944;7.412;2023-07-28T12:42:56;29.60;80.60
16974;DHT22;8603;46.944;7.412;2023-07-28T12:45:22;29.70;81.20
16974;DHT22;8603;46.944;7.412;2023-07-28T12:47:48;29.70;80.00
16974;DHT22;8603;46.944;7.412;2023-07-28T12:50:13;29.70;79.90
16974;DHT22;8603;46.944;7.412;2023-07-28T12:52:39;29.80;79.60
16974;DHT22;8603;46.944;7.412;2023-07-28T12:55:04;29.70;79.10
16974;DHT22;8603;46.944;7.412;2023-07-28T12:57:31;29.70;80.50
16974;DHT22;8603;46.944;7.412;2023-07-28T12:59:56;29.70;80.40
16974;DHT22;8603;46.944;7.412;2023-07-28T13:02:22;29.60;81.40
16974;DHT22;8603;46.944;7.412;2023-07-28T13:04:47;29.60;81.90
16974;DHT22;8603;46.944;7.412;2023-07-28T13:07:13;29.60;80.90
16974;DHT22;8603;46.944;7.412;2023-07-28T13:09:39;29.70;78.40
16974;DHT22;8603;46.944;7.412;2023-07-28T13:12:07;29.90;79.30
16974;DHT22;8603;46.944;7.412;2023-07-28T13:14:33;30.00;79.90
16974;DHT22;8603;46.944;7.412;2023-07-28T13:16:58;30.00;76.90
16974;DHT22;8603;46.944;7.412;2023-07-28T13:19:24;30.10;77.00
16974;DHT22;8603;46.944;7.412;2023-07-28T13:21:49;30.20;76.80
16974;DHT22;8603;46.944;7.412;2023-07-28T13:24:15;30.10;75.20
16974;DHT22;8603;46.944;7.412;2023-07-28T13:26:40;30.10;76.10
16974;DHT22;8603;46.944;7.412;2023-07-28T13:29:06;30.00;76.80
16974;DHT22;8603;46.944;7.412;2023-07-28T13:31:32;30.00;77.60
16974;DHT22;8603;46.944;7.412;2023-07-28T13:33:58;30.00;76.00
16974;DHT22;8603;46.944;7.412;2023-07-28T13:36:24;30.10;75.80
16974;DHT22;8603;46.944;7.412;2023-07-28T13:38:49;30.00;77.70
16974;DHT22;8603;46.944;7.412;2023-07-28T13:41:15;30.10;75.50
16974;DHT22;8603;46.944;7.412;2023-07-28T13:43:40;30.40;74.50
16974;DHT22;8603;46.944;7.412;2023-07-28T13:46:07;30.40;77.80
16974;DHT22;8603;46.944;7.412;2023-07-28T13:48:33;30.40;75.10
16974;DHT22;8603;46.944;7.412;2023-07-28T13:50:59;30.40;74.50
16974;DHT22;8603;46.944;7.412;2023-07-28T13:53:25;30.50;73.90
16974;DHT22;8603;46.944;7.412;2023-07-28T13:55:50;30.40;72.90
16974;DHT22;8603;46.944;7.412;2023-07-28T13:58:16;30.30;74.30
16974;DHT22;8603;46.944;7.412;2023-07-28T14:00:42;30.10;75.00
16974;DHT22;8603;46.944;7.412;2023-07-28T14:03:07;30.30;75.20
16974;DHT22;8603;46.944;7.412;2023-07-28T14:05:33;30.30;74.20
16974;DHT22;8603;46.944;7.412;2023-07-28T14:07:58;30.40;74.60
16974;DHT22;8603;46.944;7.412;2023-07-28T14:10:24;30.60;73.70
16974;DHT22;8603;46.944;7.412;2023-07-28T14:12:50;30.40;74.40
16974;DHT22;8603;46.944;7.412;2023-07-28T14:15:15;30.30;72.20
16974;DHT22;8603;46.944;7.412;2023-07-28T14:17:41;30.40;72.50
16974;DHT22;8603;46.944;7.412;2023-07-28T14:20:07;30.10;74.40
16974;DHT22;8603;46.944;7.412;2023-07-28T14:22:33;29.90;74.20
16974;DHT22;8603;46.944;7.412;2023-07-28T14:24:59;29.70;76.20
16974;DHT22;8603;46.944;7.412;2023-07-28T14:27:24;29.40;76.30
16974;DHT22;8603;46.944;7.412;2023-07-28T14:29:50;29.40;76.30
16974;DHT22;8603;46.944;7.412;2023-07-28T14:32:16;29.50;75.90
16974;DHT22;8603;46.944;7.412;2023-07-28T14:34:41;29.60;75.60
16974;DHT22;8603;46.944;7.412;2023-07-28T14:37:07;29.60;76.20
16974;DHT22;8603;46.944;7.412;2023-07-28T14:39:32;29.70;76.40
16974;DHT22;8603;46.944;7.412;2023-07-28T14:41:58;29.80;75.90
16974;DHT22;8603;46.944;7.412;2023-07-28T14:44:23;29.90;75.40
16974;DHT22;8603;46.944;7.412;2023-07-28T14:46:49;29.80;75.30
16974;DHT22;8603;46.944;7.412;2023-07-28T14:49:15;29.70;75.50
16974;DHT22;8603;46.944;7.412;2023-07-28T14:51:40;29.70;75.80
16974;DHT22;8603;46.944;7.412;2023-07-28T14:54:06;29.40;77.20
16974;DHT22;8603;46.944;7.412;2023-07-28T14:56:31;29.10;75.90
16974;DHT22;8603;46.944;7.412;2023-07-28T14:58:58;29.10;75.90
16974;DHT22;8603;46.944;7.412;2023-07-28T15:01:26;29.00;75.90
16974;DHT22;8603;46.944;7.412;2023-07-28T15:03:52;29.10;75.90
16974;DHT22;8603;46.944;7.412;2023-07-28T15:06:17;29.00;76.40
16974;DHT22;8603;46.944;7.412;2023-07-28T15:08:43;29.00;76.90
16974;DHT22;8603;46.944;7.412;2023-07-28T15:11:08;29.00;77.50
16974;DHT22;8603;46.944;7.412;2023-07-28T15:13:34;29.10;78.10
16974;DHT22;8603;46.944;7.412;2023-07-28T15:16:00;29.10;78.00
16974;DHT22;8603;46.944;7.412;2023-07-28T15:18:25;29.10;78.20
16974;DHT22;8603;46.944;7.412;2023-07-28T15:20:51;29.10;78.00
16974;DHT22;8603;46.944;7.412;2023-07-28T15:23:19;29.10;78.20
16974;DHT22;8603;46.944;7.412;2023-07-28T15:25:44;29.00;79.00
16974;DHT22;8603;46.944;7.412;2023-07-28T15:28:13;29.00;78.90
16974;DHT22;8603;46.944;7.412;2023-07-28T15:30:38;29.00;78.70
16974;DHT22;8603;46.944;7.412;2023-07-28T15:33:04;28.80;81.90
16974;DHT22;8603;46.944;7.412;2023-07-28T15:35:30;28.20;90.00
16974;DHT22;8603;46.944;7.412;2023-07-28T15:37:56;27.40;92.90
16974;DHT22;8603;46.944;7.412;2023-07-28T15:40:21;26.70;92.00
16974;DHT22;8603;46.944;7.412;2023-07-28T15:42:47;26.20;94.00
16974;DHT22;8603;46.944;7.412;2023-07-28T15:45:13;25.90;95.00
16974;DHT22;8603;46.944;7.412;2023-07-28T15:47:38;25.70;96.20
16974;DHT22;8603;46.944;7.412;2023-07-28T15:50:04;25.40;96.70
16974;DHT22;8603;46.944;7.412;2023-07-28T15:52:31;25.30;97.60
16974;DHT22;8603;46.944;7.412;2023-07-28T15:54:57;25.30;98.20
16974;DHT22;8603;46.944;7.412;2023-07-28T15:57:22;25.40;98.90